sensor_id;sensor_type;location;lat;lon;timestamp;P1;durP1;ratioP1;P2;durP2;ratioP2
63499;SDS011;49654;51.142;14.924;2023-01-09T00:01:30;27.50;;;16.83;;
63499;SDS011;49654;51.142;14.924;2023-01-09T00:04:02;26.67;;;16.20;;
63499;SDS011;49654;51.142;14.924;2023-01-09T00:06:30;25.50;;;16.43;;
63499;SDS011;49654;51.142;14.924;2023-01-09T00:08:57;27.67;;;17.40;;
63499;SDS011;49654;51.142;14.924;2023-01-09T00:11:24;28.92;;;16.75;;
63499;SDS011;49654;51.142;14.924;2023-01-09T00:13:51;24.70;;;16.33;;
63499;SDS011;49654;51.142;14.924;2023-01-09T00:16:19;28.67;;;17.30;;
63499;SDS011;49654;51.142;14.924;2023-01-09T00:18:46;27.50;;;16.33;;
63499;SDS011;49654;51.142;14.924;2023-01-09T00:21:14;27.10;;;17.53;;
63499;SDS011;49654;51.142;14.924;2023-01-09T00:23:42;28.27;;;16.93;;
63499;SDS011;49654;51.142;14.924;2023-01-09T00:26:10;27.07;;;16.33;;
63499;SDS011;49654;51.142;14.924;2023-01-09T00:28:39;27.13;;;16.37;;
63499;SDS011;49654;51.142;14.924;2023-01-09T00:31:06;25.67;;;16.00;;
63499;SDS011;49654;51.142;14.924;2023-01-09T00:33:34;26.20;;;16.60;;
63499;SDS011;49654;51.142;14.924;2023-01-09T00:36:04;24.70;;;15.60;;
63499;SDS011;49654;51.142;14.924;2023-01-09T00:38:33;27.57;;;16.23;;
63499;SDS011;49654;51.142;14.924;2023-01-09T00:41:01;25.70;;;16.13;;
63499;SDS011;49654;51.142;14.924;2023-01-09T00:43:31;26.90;;;16.37;;
63499;SDS011;49654;51.142;14.924;2023-01-09T00:46:01;26.73;;;16.20;;
63499;SDS011;49654;51.142;14.924;2023-01-09T00:48:31;25.85;;;15.65;;
63499;SDS011;49654;51.142;14.924;2023-01-09T00:51:00;25.83;;;15.87;;
63499;SDS011;49654;51.142;14.924;2023-01-09T00:53:28;26.67;;;16.23;;
63499;SDS011;49654;51.142;14.924;2023-01-09T00:56:00;27.23;;;15.50;;
63499;SDS011;49654;51.142;14.924;2023-01-09T00:58:32;27.07;;;16.30;;
63499;SDS011;49654;51.142;14.924;2023-01-09T01:01:00;26.90;;;15.87;;
63499;SDS011;49654;51.142;14.924;2023-01-09T01:03:27;25.77;;;16.30;;
63499;SDS011;49654;51.142;14.924;2023-01-09T01:05:54;28.87;;;16.90;;
63499;SDS011;49654;51.142;14.924;2023-01-09T01:08:35;26.27;;;15.57;;
63499;SDS011;49654;51.142;14.924;2023-01-09T01:11:04;24.23;;;15.23;;
63499;SDS011;49654;51.142;14.924;2023-01-09T01:13:33;28.07;;;15.53;;
63499;SDS011;49654;51.142;14.924;2023-01-09T01:16:02;25.30;;;15.97;;
63499;SDS011;49654;51.142;14.924;2023-01-09T01:18:30;26.43;;;16.00;;
63499;SDS011;49654;51.142;14.924;2023-01-09T01:20:57;25.03;;;15.50;;
63499;SDS011;49654;51.142;14.924;2023-01-09T01:23:24;25.87;;;16.13;;
63499;SDS011;49654;51.142;14.924;2023-01-09T01:25:51;24.20;;;14.57;;
63499;SDS011;49654;51.142;14.924;2023-01-09T01:28:20;24.43;;;14.67;;
63499;SDS011;49654;51.142;14.924;2023-01-09T01:30:47;23.17;;;14.83;;
63499;SDS011;49654;51.142;14.924;2023-01-09T01:33:14;24.03;;;15.53;;
63499;SDS011;49654;51.142;14.924;2023-01-09T01:35:41;22.17;;;14.07;;
63499;SDS011;49654;51.142;14.924;2023-01-09T01:38:08;21.63;;;13.07;;
63499;SDS011;49654;51.142;14.924;2023-01-09T01:40:35;22.00;;;13.30;;
63499;SDS011;49654;51.142;14.924;2023-01-09T01:43:02;21.90;;;13.97;;
63499;SDS011;49654;51.142;14.924;2023-01-09T01:45:31;21.83;;;13.77;;
63499;SDS011;49654;51.142;14.924;2023-01-09T01:47:59;25.63;;;13.67;;
63499;SDS011;49654;51.142;14.924;2023-01-09T01:50:32;21.30;;;13.60;;
63499;SDS011;49654;51.142;14.924;2023-01-09T01:53:05;22.60;;;13.57;;
63499;SDS011;49654;51.142;14.924;2023-01-09T01:55:35;21.47;;;13.00;;
63499;SDS011;49654;51.142;14.924;2023-01-09T01:58:07;21.90;;;13.17;;
63499;SDS011;49654;51.142;14.924;2023-01-09T02:00:38;21.67;;;12.77;;
63499;SDS011;49654;51.142;14.924;2023-01-09T02:03:08;20.00;;;12.03;;
63499;SDS011;49654;51.142;14.924;2023-01-09T02:05:35;20.00;;;12.60;;
63499;SDS011;49654;51.142;14.924;2023-01-09T02:08:05;19.13;;;11.40;;
63499;SDS011;49654;51.142;14.924;2023-01-09T02:10:32;16.50;;;10.47;;
63499;SDS011;49654;51.142;14.924;2023-01-09T02:13:00;15.77;;;9.43;;
63499;SDS011;49654;51.142;14.924;2023-01-09T02:15:29;14.43;;;9.13;;
63499;SDS011;49654;51.142;14.924;2023-01-09T02:21:00;14.43;;;8.77;;
63499;SDS011;49654;51.142;14.924;2023-01-09T02:26:55;12.83;;;8.53;;
63499;SDS011;49654;51.142;14.924;2023-01-09T02:32:16;14.00;;;8.70;;
63499;SDS011;49654;51.142;14.924;2023-01-09T02:34:53;13.10;;;9.20;;
63499;SDS011;49654;51.142;14.924;2023-01-09T02:37:30;15.60;;;10.27;;
63499;SDS011;49654;51.142;14.924;2023-01-09T02:40:06;15.83;;;10.23;;
63499;SDS011;49654;51.142;14.924;2023-01-09T02:42:41;15.20;;;10.33;;
63499;SDS011;49654;51.142;14.924;2023-01-09T02:45:11;17.90;;;11.20;;
63499;SDS011;49654;51.142;14.924;2023-01-09T02:47:40;17.07;;;11.00;;
63499;SDS011;49654;51.142;14.924;2023-01-09T02:50:09;15.43;;;10.27;;
63499;SDS011;49654;51.142;14.924;2023-01-09T02:53:00;15.27;;;9.10;;
63499;SDS011;49654;51.142;14.924;2023-01-09T02:55:40;17.67;;;9.85;;
63499;SDS011;49654;51.142;14.924;2023-01-09T02:58:18;20.13;;;11.53;;
63499;SDS011;49654;51.142;14.924;2023-01-09T03:01:00;16.35;;;10.65;;
63499;SDS011;49654;51.142;14.924;2023-01-09T03:03:37;17.67;;;11.13;;
63499;SDS011;49654;51.142;14.924;2023-01-09T03:06:12;15.18;;;10.38;;
63499;SDS011;49654;51.142;14.924;2023-01-09T03:08:46;15.55;;;9.93;;
63499;SDS011;49654;51.142;14.924;2023-01-09T03:11:16;15.93;;;10.32;;
63499;SDS011;49654;51.142;14.924;2023-01-09T03:13:47;16.10;;;10.90;;
63499;SDS011;49654;51.142;14.924;2023-01-09T03:16:19;18.63;;;10.65;;
63499;SDS011;49654;51.142;14.924;2023-01-09T03:18:51;18.43;;;11.33;;
63499;SDS011;49654;51.142;14.924;2023-01-09T03:21:19;18.38;;;10.38;;
63499;SDS011;49654;51.142;14.924;2023-01-09T03:23:48;17.52;;;10.98;;
63499;SDS011;49654;51.142;14.924;2023-01-09T03:26:17;18.90;;;11.68;;
63499;SDS011;49654;51.142;14.924;2023-01-09T03:28:44;18.63;;;11.55;;
63499;SDS011;49654;51.142;14.924;2023-01-09T03:31:12;19.38;;;12.10;;
63499;SDS011;49654;51.142;14.924;2023-01-09T03:33:40;18.75;;;12.20;;
63499;SDS011;49654;51.142;14.924;2023-01-09T03:36:09;18.70;;;12.30;;
63499;SDS011;49654;51.142;14.924;2023-01-09T03:38:37;21.00;;;13.00;;
63499;SDS011;49654;51.142;14.924;2023-01-09T03:41:05;19.70;;;12.82;;
63499;SDS011;49654;51.142;14.924;2023-01-09T03:43:32;21.00;;;13.50;;
63499;SDS011;49654;51.142;14.924;2023-01-09T03:45:59;22.08;;;13.95;;
63499;SDS011;49654;51.142;14.924;2023-01-09T03:48:26;18.50;;;12.03;;
63499;SDS011;49654;51.142;14.924;2023-01-09T03:50:54;18.35;;;12.50;;
63499;SDS011;49654;51.142;14.924;2023-01-09T03:53:24;18.83;;;12.10;;
63499;SDS011;49654;51.142;14.924;2023-01-09T03:55:52;18.15;;;11.73;;
63499;SDS011;49654;51.142;14.924;2023-01-09T03:58:21;19.38;;;12.15;;
63499;SDS011;49654;51.142;14.924;2023-01-09T04:00:49;19.40;;;12.33;;
63499;SDS011;49654;51.142;14.924;2023-01-09T04:03:17;17.88;;;11.98;;
63499;SDS011;49654;51.142;14.924;2023-01-09T04:05:46;19.10;;;12.77;;
63499;SDS011;49654;51.142;14.924;2023-01-09T04:08:14;18.05;;;11.57;;
63499;SDS011;49654;51.142;14.924;2023-01-09T04:10:44;19.95;;;12.73;;
63499;SDS011;49654;51.142;14.924;2023-01-09T04:13:11;17.33;;;11.43;;
63499;SDS011;49654;51.142;14.924;2023-01-09T04:15:38;18.02;;;12.18;;
63499;SDS011;49654;51.142;14.924;2023-01-09T04:18:06;16.60;;;11.68;;
63499;SDS011;49654;51.142;14.924;2023-01-09T04:20:33;17.83;;;11.95;;
63499;SDS011;49654;51.142;14.924;2023-01-09T04:23:00;19.85;;;11.82;;
63499;SDS011;49654;51.142;14.924;2023-01-09T04:25:30;19.55;;;12.30;;
63499;SDS011;49654;51.142;14.924;2023-01-09T04:27:58;18.60;;;11.52;;
63499;SDS011;49654;51.142;14.924;2023-01-09T04:30:25;19.15;;;11.77;;
63499;SDS011;49654;51.142;14.924;2023-01-09T04:32:52;18.50;;;11.77;;
63499;SDS011;49654;51.142;14.924;2023-01-09T04:35:19;17.27;;;12.10;;
63499;SDS011;49654;51.142;14.924;2023-01-09T04:37:46;18.15;;;12.13;;
63499;SDS011;49654;51.142;14.924;2023-01-09T04:40:14;17.48;;;11.75;;
63499;SDS011;49654;51.142;14.924;2023-01-09T04:42:44;19.08;;;12.10;;
63499;SDS011;49654;51.142;14.924;2023-01-09T04:45:12;21.67;;;12.48;;
63499;SDS011;49654;51.142;14.924;2023-01-09T04:47:42;21.42;;;13.82;;
63499;SDS011;49654;51.142;14.924;2023-01-09T04:50:13;21.13;;;14.15;;
63499;SDS011;49654;51.142;14.924;2023-01-09T04:52:40;21.67;;;13.88;;
63499;SDS011;49654;51.142;14.924;2023-01-09T04:55:07;21.17;;;13.40;;
63499;SDS011;49654;51.142;14.924;2023-01-09T04:57:35;20.48;;;12.93;;
63499;SDS011;49654;51.142;14.924;2023-01-09T05:00:04;19.50;;;13.13;;
63499;SDS011;49654;51.142;14.924;2023-01-09T05:02:36;21.73;;;13.63;;
63499;SDS011;49654;51.142;14.924;2023-01-09T05:05:03;21.40;;;13.50;;
63499;SDS011;49654;51.142;14.924;2023-01-09T05:07:31;22.13;;;14.52;;
63499;SDS011;49654;51.142;14.924;2023-01-09T05:09:58;21.67;;;14.17;;
63499;SDS011;49654;51.142;14.924;2023-01-09T05:12:25;23.07;;;14.73;;
63499;SDS011;49654;51.142;14.924;2023-01-09T05:14:52;23.35;;;14.90;;
63499;SDS011;49654;51.142;14.924;2023-01-09T05:17:19;23.55;;;14.40;;
63499;SDS011;49654;51.142;14.924;2023-01-09T05:19:48;26.27;;;16.07;;
63499;SDS011;49654;51.142;14.924;2023-01-09T05:22:15;24.50;;;16.57;;
63499;SDS011;49654;51.142;14.924;2023-01-09T05:24:42;29.10;;;16.33;;
63499;SDS011;49654;51.142;14.924;2023-01-09T05:27:09;26.00;;;17.13;;
63499;SDS011;49654;51.142;14.924;2023-01-09T05:29:36;26.63;;;17.25;;
63499;SDS011;49654;51.142;14.924;2023-01-09T05:32:03;29.17;;;16.83;;
63499;SDS011;49654;51.142;14.924;2023-01-09T05:34:30;25.50;;;16.27;;
63499;SDS011;49654;51.142;14.924;2023-01-09T05:36:59;29.88;;;18.38;;
63499;SDS011;49654;51.142;14.924;2023-01-09T05:39:26;26.70;;;17.23;;
63499;SDS011;49654;51.142;14.924;2023-01-09T05:41:53;26.57;;;16.87;;
63499;SDS011;49654;51.142;14.924;2023-01-09T05:44:20;27.03;;;16.40;;
63499;SDS011;49654;51.142;14.924;2023-01-09T05:46:47;24.53;;;16.07;;
63499;SDS011;49654;51.142;14.924;2023-01-09T05:49:14;25.17;;;15.88;;
63499;SDS011;49654;51.142;14.924;2023-01-09T05:51:41;23.73;;;16.03;;
63499;SDS011;49654;51.142;14.924;2023-01-09T05:54:09;26.27;;;15.90;;
63499;SDS011;49654;51.142;14.924;2023-01-09T05:56:36;23.63;;;15.27;;
63499;SDS011;49654;51.142;14.924;2023-01-09T05:59:03;24.95;;;16.63;;
63499;SDS011;49654;51.142;14.924;2023-01-09T06:01:30;24.05;;;15.70;;
63499;SDS011;49654;51.142;14.924;2023-01-09T06:03:57;23.17;;;15.25;;
63499;SDS011;49654;51.142;14.924;2023-01-09T06:06:24;24.70;;;15.37;;
63499;SDS011;49654;51.142;14.924;2023-01-09T06:08:51;23.50;;;14.90;;
63499;SDS011;49654;51.142;14.924;2023-01-09T06:11:20;23.77;;;15.40;;
63499;SDS011;49654;51.142;14.924;2023-01-09T06:13:47;21.07;;;14.50;;
63499;SDS011;49654;51.142;14.924;2023-01-09T06:16:14;22.97;;;14.57;;
63499;SDS011;49654;51.142;14.924;2023-01-09T06:18:41;23.63;;;14.77;;
63499;SDS011;49654;51.142;14.924;2023-01-09T06:21:07;22.87;;;14.10;;
63499;SDS011;49654;51.142;14.924;2023-01-09T06:23:34;23.30;;;14.87;;
63499;SDS011;49654;51.142;14.924;2023-01-09T06:26:01;23.83;;;15.30;;
63499;SDS011;49654;51.142;14.924;2023-01-09T06:28:30;23.17;;;14.13;;
63499;SDS011;49654;51.142;14.924;2023-01-09T06:30:57;22.17;;;14.97;;
63499;SDS011;49654;51.142;14.924;2023-01-09T06:33:24;22.30;;;13.73;;
63499;SDS011;49654;51.142;14.924;2023-01-09T06:35:51;21.47;;;14.17;;
63499;SDS011;49654;51.142;14.924;2023-01-09T06:38:18;20.83;;;13.73;;
63499;SDS011;49654;51.142;14.924;2023-01-09T06:40:45;21.83;;;15.20;;
63499;SDS011;49654;51.142;14.924;2023-01-09T06:43:12;20.37;;;13.70;;
63499;SDS011;49654;51.142;14.924;2023-01-09T06:45:41;19.10;;;12.93;;
63499;SDS011;49654;51.142;14.924;2023-01-09T06:48:09;21.97;;;13.13;;
63499;SDS011;49654;51.142;14.924;2023-01-09T06:50:36;20.92;;;13.25;;
63499;SDS011;49654;51.142;14.924;2023-01-09T06:53:03;20.57;;;13.53;;
63499;SDS011;49654;51.142;14.924;2023-01-09T06:55:30;22.10;;;14.47;;
63499;SDS011;49654;51.142;14.924;2023-01-09T06:57:57;19.43;;;13.33;;
63499;SDS011;49654;51.142;14.924;2023-01-09T07:00:24;19.40;;;13.03;;
63499;SDS011;49654;51.142;14.924;2023-01-09T07:02:53;19.67;;;14.10;;
63499;SDS011;49654;51.142;14.924;2023-01-09T07:05:19;20.25;;;13.85;;
63499;SDS011;49654;51.142;14.924;2023-01-09T07:07:46;19.70;;;13.37;;
63499;SDS011;49654;51.142;14.924;2023-01-09T07:10:13;22.17;;;14.05;;
63499;SDS011;49654;51.142;14.924;2023-01-09T07:12:41;20.83;;;14.03;;
63499;SDS011;49654;51.142;14.924;2023-01-09T07:15:08;23.60;;;15.02;;
63499;SDS011;49654;51.142;14.924;2023-01-09T07:17:35;20.30;;;14.20;;
63499;SDS011;49654;51.142;14.924;2023-01-09T07:20:04;20.93;;;14.13;;
63499;SDS011;49654;51.142;14.924;2023-01-09T07:22:32;22.00;;;14.70;;
63499;SDS011;49654;51.142;14.924;2023-01-09T07:24:59;25.63;;;14.55;;
63499;SDS011;49654;51.142;14.924;2023-01-09T07:27:26;23.23;;;15.15;;
63499;SDS011;49654;51.142;14.924;2023-01-09T07:29:53;21.13;;;14.60;;
63499;SDS011;49654;51.142;14.924;2023-01-09T07:32:20;22.33;;;14.10;;
63499;SDS011;49654;51.142;14.924;2023-01-09T07:34:47;22.67;;;15.38;;
63499;SDS011;49654;51.142;14.924;2023-01-09T07:37:17;22.08;;;14.90;;
63499;SDS011;49654;51.142;14.924;2023-01-09T07:39:44;20.85;;;14.55;;
63499;SDS011;49654;51.142;14.924;2023-01-09T07:42:11;21.30;;;14.85;;
63499;SDS011;49654;51.142;14.924;2023-01-09T07:44:38;24.55;;;15.48;;
63499;SDS011;49654;51.142;14.924;2023-01-09T07:47:05;24.02;;;15.38;;
63499;SDS011;49654;51.142;14.924;2023-01-09T07:49:32;22.90;;;15.75;;
63499;SDS011;49654;51.142;14.924;2023-01-09T07:51:59;23.17;;;15.60;;
63499;SDS011;49654;51.142;14.924;2023-01-09T07:54:28;24.87;;;16.23;;
63499;SDS011;49654;51.142;14.924;2023-01-09T07:56:55;24.20;;;16.23;;
63499;SDS011;49654;51.142;14.924;2023-01-09T07:59:22;22.87;;;15.53;;
63499;SDS011;49654;51.142;14.924;2023-01-09T08:01:49;23.47;;;15.97;;
63499;SDS011;49654;51.142;14.924;2023-01-09T08:04:16;24.65;;;15.20;;
63499;SDS011;49654;51.142;14.924;2023-01-09T08:06:43;24.02;;;16.00;;
63499;SDS011;49654;51.142;14.924;2023-01-09T08:09:10;22.73;;;15.95;;
63499;SDS011;49654;51.142;14.924;2023-01-09T08:11:39;23.92;;;16.17;;
63499;SDS011;49654;51.142;14.924;2023-01-09T08:14:07;22.67;;;14.63;;
63499;SDS011;49654;51.142;14.924;2023-01-09T08:16:33;20.83;;;14.63;;
63499;SDS011;49654;51.142;14.924;2023-01-09T08:19:00;20.95;;;14.60;;
63499;SDS011;49654;51.142;14.924;2023-01-09T08:21:27;22.87;;;15.07;;
63499;SDS011;49654;51.142;14.924;2023-01-09T08:23:54;22.38;;;15.20;;
63499;SDS011;49654;51.142;14.924;2023-01-09T08:26:21;22.48;;;15.20;;
63499;SDS011;49654;51.142;14.924;2023-01-09T08:28:50;22.80;;;14.83;;
63499;SDS011;49654;51.142;14.924;2023-01-09T08:31:17;23.80;;;16.25;;
63499;SDS011;49654;51.142;14.924;2023-01-09T08:33:44;22.30;;;15.83;;
63499;SDS011;49654;51.142;14.924;2023-01-09T08:36:11;22.92;;;15.02;;
63499;SDS011;49654;51.142;14.924;2023-01-09T08:38:38;21.83;;;15.18;;
63499;SDS011;49654;51.142;14.924;2023-01-09T08:41:05;21.90;;;15.70;;
63499;SDS011;49654;51.142;14.924;2023-01-09T08:43:46;22.00;;;15.13;;
63499;SDS011;49654;51.142;14.924;2023-01-09T08:46:31;24.73;;;16.00;;
63499;SDS011;49654;51.142;14.924;2023-01-09T08:49:16;22.33;;;15.33;;
63499;SDS011;49654;51.142;14.924;2023-01-09T08:51:43;25.27;;;16.03;;
63499;SDS011;49654;51.142;14.924;2023-01-09T08:54:10;22.87;;;14.90;;
63499;SDS011;49654;51.142;14.924;2023-01-09T08:56:37;23.37;;;16.13;;
63499;SDS011;49654;51.142;14.924;2023-01-09T08:59:04;25.97;;;16.73;;
63499;SDS011;49654;51.142;14.924;2023-01-09T09:01:32;21.33;;;14.60;;
63499;SDS011;49654;51.142;14.924;2023-01-09T09:03:59;22.63;;;15.40;;
63499;SDS011;49654;51.142;14.924;2023-01-09T09:06:30;21.50;;;14.70;;
63499;SDS011;49654;51.142;14.924;2023-01-09T09:08:57;22.00;;;14.87;;
63499;SDS011;49654;51.142;14.924;2023-01-09T09:11:27;25.37;;;15.63;;
63499;SDS011;49654;51.142;14.924;2023-01-09T09:13:55;23.03;;;15.57;;
63499;SDS011;49654;51.142;14.924;2023-01-09T09:16:22;21.73;;;15.97;;
63499;SDS011;49654;51.142;14.924;2023-01-09T09:18:50;22.80;;;14.50;;
63499;SDS011;49654;51.142;14.924;2023-01-09T09:21:18;22.95;;;15.38;;
63499;SDS011;49654;51.142;14.924;2023-01-09T09:23:45;21.38;;;14.85;;
63499;SDS011;49654;51.142;14.924;2023-01-09T09:26:12;21.70;;;15.27;;
63499;SDS011;49654;51.142;14.924;2023-01-09T09:28:39;21.77;;;14.93;;
63499;SDS011;49654;51.142;14.924;2023-01-09T09:31:06;23.30;;;15.67;;
63499;SDS011;49654;51.142;14.924;2023-01-09T09:33:33;21.90;;;15.53;;
63499;SDS011;49654;51.142;14.924;2023-01-09T09:36:02;24.90;;;16.73;;
63499;SDS011;49654;51.142;14.924;2023-01-09T09:38:29;23.80;;;15.57;;
63499;SDS011;49654;51.142;14.924;2023-01-09T09:41:02;23.43;;;15.07;;
63499;SDS011;49654;51.142;14.924;2023-01-09T09:44:01;22.57;;;16.10;;
63499;SDS011;49654;51.142;14.924;2023-01-09T09:46:55;24.73;;;16.30;;
63499;SDS011;49654;51.142;14.924;2023-01-09T09:49:32;28.97;;;16.47;;
63499;SDS011;49654;51.142;14.924;2023-01-09T09:52:17;25.17;;;16.33;;
63499;SDS011;49654;51.142;14.924;2023-01-09T09:54:51;22.30;;;15.57;;
63499;SDS011;49654;51.142;14.924;2023-01-09T09:57:19;22.35;;;15.40;;
63499;SDS011;49654;51.142;14.924;2023-01-09T09:59:51;21.70;;;15.50;;
63499;SDS011;49654;51.142;14.924;2023-01-09T10:02:28;22.30;;;15.15;;
63499;SDS011;49654;51.142;14.924;2023-01-09T10:04:59;24.13;;;15.20;;
63499;SDS011;49654;51.142;14.924;2023-01-09T10:07:34;23.33;;;15.77;;
63499;SDS011;49654;51.142;14.924;2023-01-09T10:10:08;20.60;;;14.75;;
63499;SDS011;49654;51.142;14.924;2023-01-09T10:12:41;21.97;;;14.93;;
63499;SDS011;49654;51.142;14.924;2023-01-09T10:15:14;22.55;;;15.02;;
63499;SDS011;49654;51.142;14.924;2023-01-09T10:17:46;23.30;;;15.03;;
63499;SDS011;49654;51.142;14.924;2023-01-09T10:20:32;22.73;;;14.48;;
63499;SDS011;49654;51.142;14.924;2023-01-09T10:23:16;21.87;;;14.77;;
63499;SDS011;49654;51.142;14.924;2023-01-09T10:25:59;23.33;;;15.87;;
63499;SDS011;49654;51.142;14.924;2023-01-09T10:28:43;21.43;;;14.50;;
63499;SDS011;49654;51.142;14.924;2023-01-09T10:31:28;22.97;;;14.67;;
63499;SDS011;49654;51.142;14.924;2023-01-09T10:34:01;22.67;;;15.60;;
63499;SDS011;49654;51.142;14.924;2023-01-09T10:39:30;22.87;;;15.17;;
63499;SDS011;49654;51.142;14.924;2023-01-09T10:42:03;22.48;;;15.13;;
63499;SDS011;49654;51.142;14.924;2023-01-09T10:44:37;22.63;;;14.80;;
63499;SDS011;49654;51.142;14.924;2023-01-09T10:47:10;25.30;;;14.95;;
63499;SDS011;49654;51.142;14.924;2023-01-09T10:49:45;20.02;;;14.52;;
63499;SDS011;49654;51.142;14.924;2023-01-09T10:52:24;19.92;;;14.88;;
63499;SDS011;49654;51.142;14.924;2023-01-09T10:55:21;18.48;;;13.68;;
63499;SDS011;49654;51.142;14.924;2023-01-09T10:58:01;18.30;;;14.25;;
63499;SDS011;49654;51.142;14.924;2023-01-09T11:00:37;20.52;;;14.32;;
63499;SDS011;49654;51.142;14.924;2023-01-09T11:03:07;19.27;;;13.65;;
63499;SDS011;49654;51.142;14.924;2023-01-09T11:05:37;22.00;;;14.48;;
63499;SDS011;49654;51.142;14.924;2023-01-09T11:08:05;18.40;;;13.05;;
63499;SDS011;49654;51.142;14.924;2023-01-09T11:10:45;19.17;;;13.70;;
63499;SDS011;49654;51.142;14.924;2023-01-09T11:13:14;18.15;;;13.32;;
63499;SDS011;49654;51.142;14.924;2023-01-09T11:16:03;18.13;;;13.15;;
63499;SDS011;49654;51.142;14.924;2023-01-09T11:18:34;16.60;;;13.00;;
63499;SDS011;49654;51.142;14.924;2023-01-09T11:21:11;18.20;;;12.82;;
63499;SDS011;49654;51.142;14.924;2023-01-09T11:23:40;18.95;;;13.27;;
63499;SDS011;49654;51.142;14.924;2023-01-09T11:26:20;17.38;;;12.57;;
63499;SDS011;49654;51.142;14.924;2023-01-09T11:31:33;17.27;;;11.90;;
63499;SDS011;49654;51.142;14.924;2023-01-09T11:34:03;15.93;;;11.98;;
63499;SDS011;49654;51.142;14.924;2023-01-09T11:36:32;16.38;;;11.55;;
63499;SDS011;49654;51.142;14.924;2023-01-09T11:39:00;16.47;;;11.33;;
63499;SDS011;49654;51.142;14.924;2023-01-09T11:41:31;16.42;;;11.82;;
63499;SDS011;49654;51.142;14.924;2023-01-09T11:44:01;15.50;;;11.17;;
63499;SDS011;49654;51.142;14.924;2023-01-09T11:46:40;17.67;;;12.40;;
63499;SDS011;49654;51.142;14.924;2023-01-09T11:49:30;17.85;;;12.35;;
63499;SDS011;49654;51.142;14.924;2023-01-09T11:52:29;14.43;;;11.25;;
63499;SDS011;49654;51.142;14.924;2023-01-09T11:54:57;17.17;;;12.38;;
63499;SDS011;49654;51.142;14.924;2023-01-09T11:57:30;15.90;;;12.13;;
63499;SDS011;49654;51.142;14.924;2023-01-09T12:00:00;16.23;;;12.10;;
63499;SDS011;49654;51.142;14.924;2023-01-09T12:02:32;17.30;;;11.35;;
63499;SDS011;49654;51.142;14.924;2023-01-09T12:05:16;16.30;;;11.80;;
63499;SDS011;49654;51.142;14.924;2023-01-09T12:08:02;19.23;;;12.55;;
63499;SDS011;49654;51.142;14.924;2023-01-09T12:10:44;18.58;;;12.98;;
63499;SDS011;49654;51.142;14.924;2023-01-09T12:13:24;16.95;;;12.80;;
63499;SDS011;49654;51.142;14.924;2023-01-09T12:16:07;18.50;;;13.65;;
63499;SDS011;49654;51.142;14.924;2023-01-09T12:18:43;20.25;;;14.52;;
63499;SDS011;49654;51.142;14.924;2023-01-09T12:21:25;20.33;;;14.97;;
63499;SDS011;49654;51.142;14.924;2023-01-09T12:24:13;19.53;;;14.97;;
63499;SDS011;49654;51.142;14.924;2023-01-09T12:27:08;20.03;;;15.00;;
63499;SDS011;49654;51.142;14.924;2023-01-09T12:30:26;17.95;;;12.32;;
63499;SDS011;49654;51.142;14.924;2023-01-09T12:33:46;15.03;;;10.10;;
63499;SDS011;49654;51.142;14.924;2023-01-09T12:36:24;14.88;;;11.43;;
63499;SDS011;49654;51.142;14.924;2023-01-09T12:39:15;14.68;;;10.93;;
63499;SDS011;49654;51.142;14.924;2023-01-09T12:42:03;15.83;;;11.87;;
63499;SDS011;49654;51.142;14.924;2023-01-09T12:44:47;15.52;;;11.57;;
63499;SDS011;49654;51.142;14.924;2023-01-09T12:47:50;16.52;;;12.00;;
63499;SDS011;49654;51.142;14.924;2023-01-09T12:50:47;13.95;;;10.27;;
63499;SDS011;49654;51.142;14.924;2023-01-09T12:53:32;14.43;;;10.45;;
63499;SDS011;49654;51.142;14.924;2023-01-09T12:56:20;15.10;;;9.77;;
63499;SDS011;49654;51.142;14.924;2023-01-09T12:59:05;14.48;;;9.57;;
63499;SDS011;49654;51.142;14.924;2023-01-09T13:01:47;13.00;;;9.93;;
63499;SDS011;49654;51.142;14.924;2023-01-09T13:04:30;14.63;;;10.02;;
63499;SDS011;49654;51.142;14.924;2023-01-09T13:07:10;15.05;;;9.95;;
63499;SDS011;49654;51.142;14.924;2023-01-09T13:09:48;13.20;;;9.80;;
63499;SDS011;49654;51.142;14.924;2023-01-09T13:12:22;12.88;;;10.05;;
63499;SDS011;49654;51.142;14.924;2023-01-09T13:14:53;13.07;;;9.80;;
63499;SDS011;49654;51.142;14.924;2023-01-09T13:17:29;11.18;;;8.80;;
63499;SDS011;49654;51.142;14.924;2023-01-09T13:20:15;13.07;;;9.15;;
63499;SDS011;49654;51.142;14.924;2023-01-09T13:22:51;12.65;;;9.13;;
63499;SDS011;49654;51.142;14.924;2023-01-09T13:25:24;12.13;;;8.73;;
63499;SDS011;49654;51.142;14.924;2023-01-09T13:28:02;15.43;;;9.00;;
63499;SDS011;49654;51.142;14.924;2023-01-09T13:30:40;12.13;;;8.70;;
63499;SDS011;49654;51.142;14.924;2023-01-09T13:33:23;11.68;;;8.45;;
63499;SDS011;49654;51.142;14.924;2023-01-09T13:35:55;11.93;;;7.85;;
63499;SDS011;49654;51.142;14.924;2023-01-09T13:38:25;11.80;;;7.60;;
63499;SDS011;49654;51.142;14.924;2023-01-09T13:41:06;11.52;;;7.32;;
63499;SDS011;49654;51.142;14.924;2023-01-09T13:43:56;8.90;;;6.72;;
63499;SDS011;49654;51.142;14.924;2023-01-09T13:46:32;9.13;;;6.97;;
63499;SDS011;49654;51.142;14.924;2023-01-09T13:49:03;9.05;;;6.43;;
63499;SDS011;49654;51.142;14.924;2023-01-09T13:57:26;6.85;;;4.70;;
63499;SDS011;49654;51.142;14.924;2023-01-09T13:59:57;5.60;;;4.60;;
63499;SDS011;49654;51.142;14.924;2023-01-09T14:02:54;5.78;;;4.03;;
63499;SDS011;49654;51.142;14.924;2023-01-09T14:08:49;4.63;;;3.38;;
63499;SDS011;49654;51.142;14.924;2023-01-09T14:11:54;5.67;;;3.80;;
63499;SDS011;49654;51.142;14.924;2023-01-09T14:14:49;6.18;;;3.78;;
63499;SDS011;49654;51.142;14.924;2023-01-09T14:17:40;5.72;;;3.50;;
63499;SDS011;49654;51.142;14.924;2023-01-09T14:20:22;5.40;;;3.78;;
63499;SDS011;49654;51.142;14.924;2023-01-09T14:22:54;5.32;;;3.63;;
63499;SDS011;49654;51.142;14.924;2023-01-09T14:25:24;5.97;;;3.90;;
63499;SDS011;49654;51.142;14.924;2023-01-09T14:28:18;6.55;;;4.00;;
63499;SDS011;49654;51.142;14.924;2023-01-09T14:31:02;6.50;;;3.60;;
63499;SDS011;49654;51.142;14.924;2023-01-09T14:33:34;6.97;;;3.30;;
63499;SDS011;49654;51.142;14.924;2023-01-09T14:38:55;4.07;;;2.90;;
63499;SDS011;49654;51.142;14.924;2023-01-09T14:41:28;3.97;;;2.58;;
63499;SDS011;49654;51.142;14.924;2023-01-09T14:44:21;4.65;;;3.00;;
63499;SDS011;49654;51.142;14.924;2023-01-09T14:46:53;3.80;;;3.10;;
63499;SDS011;49654;51.142;14.924;2023-01-09T14:49:26;6.65;;;4.28;;
63499;SDS011;49654;51.142;14.924;2023-01-09T14:51:59;5.60;;;4.18;;
63499;SDS011;49654;51.142;14.924;2023-01-09T14:54:31;5.30;;;4.07;;
63499;SDS011;49654;51.142;14.924;2023-01-09T14:57:04;8.68;;;4.95;;
63499;SDS011;49654;51.142;14.924;2023-01-09T14:59:55;6.43;;;4.13;;
63499;SDS011;49654;51.142;14.924;2023-01-09T15:02:23;6.25;;;4.22;;
63499;SDS011;49654;51.142;14.924;2023-01-09T15:04:52;6.10;;;4.07;;
63499;SDS011;49654;51.142;14.924;2023-01-09T15:07:23;5.93;;;4.85;;